^^
Daily Summary for September 08, 2021 Units:  Both    English   Metric
Daily Weekly Monthly Yearly Custom
  High: Low: Average:
Temperature: 106.0 °F /  41.1 °C 71.0 °F /  21.7 °C 84.9 °F /  29.4 °C
Dew Point: 56.0 °F /  13.3 °C 40.0 °F /  4.4 °C 44.8 °F /  7.1 °C
Humidity: 39% 12% 27%
Wind Speed: 16mph /  25.7km/h - 3.2mph /  5.1km/h
Wind Gust: 16mph /  25.7km/h - -
Wind- - WSW
Pressure: 30.0 in /  1015.8 hPa 29.8 in /  1009 hPa -
Precipitation: 0.000 in /  0 mm    
Historical Graphs
 
 
Tabular Data for September 08, 2021
Time Temperature Dew Point Pressure Wind Wind Speed Wind Gust Humidity Rainfall Rate (Hourly) solar
00:04 74.0 °F /  23.3 °C 40.0 °F /  4.4 °C 29.9in /  1012.4hPa Calm     30% 0.000in /  0mm 0.00 W/m2
00:09 74.0 °F /  23.3 °C 40.0 °F /  4.4 °C 29.9in /  1012.4hPa Calm     30% 0.000in /  0mm 0.00 W/m2
00:14 74.0 °F /  23.3 °C 40.0 °F /  4.4 °C 29.9in /  1012.4hPa Calm     30% 0.000in /  0mm 0.00 W/m2
00:19 73.0 °F /  22.8 °C 40.0 °F /  4.4 °C 29.9in /  1012.4hPa Calm     30% 0.000in /  0mm 0.00 W/m2
00:24 73.0 °F /  22.8 °C 41.0 °F /  5 °C 29.9in /  1012.4hPa Calm     31% 0.000in /  0mm 0.00 W/m2
00:29 73.0 °F /  22.8 °C 41.0 °F /  5 °C 29.9in /  1012.4hPa Calm     31% 0.000in /  0mm 0.00 W/m2
00:34 73.0 °F /  22.8 °C 41.0 °F /  5 °C 29.9in /  1012.4hPa Calm     31% 0.000in /  0mm 0.00 W/m2
00:39 73.0 °F /  22.8 °C 41.0 °F /  5 °C 29.9in /  1012.4hPa Calm     31% 0.000in /  0mm 0.00 W/m2
00:44 73.0 °F /  22.8 °C 41.0 °F /  5 °C 29.9in /  1012.4hPa Calm     31% 0.000in /  0mm 0.00 W/m2
00:49 73.0 °F /  22.8 °C 41.0 °F /  5 °C 29.9in /  1012.4hPa Calm     31% 0.000in /  0mm 0.00 W/m2
00:54 73.0 °F /  22.8 °C 41.0 °F /  5 °C 29.9in /  1012.4hPa Calm     31% 0.000in /  0mm 0.00 W/m2
00:59 73.0 °F /  22.8 °C 41.0 °F /  5 °C 29.9in /  1012.4hPa Calm     32% 0.000in /  0mm 0.00 W/m2
01:04 73.0 °F /  22.8 °C 41.0 °F /  5 °C 29.9in /  1012.4hPa Calm     32% 0.000in /  0mm 0.00 W/m2
01:09 73.0 °F /  22.8 °C 42.0 °F /  5.6 °C 29.9in /  1012.4hPa Calm     33% 0.000in /  0mm 0.00 W/m2
01:14 73.0 °F /  22.8 °C 42.0 °F /  5.6 °C 29.9in /  1012.4hPa Calm     33% 0.000in /  0mm 0.00 W/m2
01:19 73.0 °F /  22.8 °C 41.0 °F /  5 °C 29.9in /  1012.4hPa Calm     32% 0.000in /  0mm 0.00 W/m2
01:24 73.0 °F /  22.8 °C 42.0 °F /  5.6 °C 29.9in /  1012.4hPa Calm     33% 0.000in /  0mm 0.00 W/m2
01:29 72.0 °F /  22.2 °C 42.0 °F /  5.6 °C 29.9in /  1012.4hPa Calm     33% 0.000in /  0mm 0.00 W/m2
01:34 72.0 °F /  22.2 °C 42.0 °F /  5.6 °C 29.9in /  1012.4hPa Calm     33% 0.000in /  0mm 0.00 W/m2
01:39 72.0 °F /  22.2 °C 42.0 °F /  5.6 °C 29.9in /  1012.4hPa Calm     33% 0.000in /  0mm 0.00 W/m2
01:44 72.0 °F /  22.2 °C 42.0 °F /  5.6 °C 29.9in /  1012.4hPa Calm     33% 0.000in /  0mm 0.00 W/m2
01:49 72.0 °F /  22.2 °C 42.0 °F /  5.6 °C 29.9in /  1012.4hPa Calm     33% 0.000in /  0mm 0.00 W/m2
01:54 72.0 °F /  22.2 °C 42.0 °F /  5.6 °C 29.9in /  1012.4hPa Calm     34% 0.000in /  0mm 0.00 W/m2
01:59 72.0 °F /  22.2 °C 42.0 °F /  5.6 °C 29.9in /  1012.4hPa Calm     34% 0.000in /  0mm 0.00 W/m2
02:04 72.0 °F /  22.2 °C 42.0 °F /  5.6 °C 29.9in /  1012.4hPa Calm     34% 0.000in /  0mm 0.00 W/m2
02:09 72.0 °F /  22.2 °C 41.0 °F /  5 °C 29.9in /  1012.4hPa Calm     33% 0.000in /  0mm 0.00 W/m2
02:14 72.0 °F /  22.2 °C 43.0 °F /  6.1 °C 29.9in /  1012.4hPa Calm     35% 0.000in /  0mm 0.00 W/m2
02:19 72.0 °F /  22.2 °C 43.0 °F /  6.1 °C 29.9in /  1012.4hPa Calm     35% 0.000in /  0mm 0.00 W/m2
02:24 72.0 °F /  22.2 °C 43.0 °F /  6.1 °C 29.9in /  1012.4hPa Calm     35% 0.000in /  0mm 0.00 W/m2
02:29 72.0 °F /  22.2 °C 45.0 °F /  7.2 °C 29.9in /  1012.4hPa Calm     38% 0.000in /  0mm 0.00 W/m2
02:34 72.0 °F /  22.2 °C 43.0 °F /  6.1 °C 29.9in /  1012.4hPa Calm     35% 0.000in /  0mm 0.00 W/m2
02:39 72.0 °F /  22.2 °C 43.0 °F /  6.1 °C 29.9in /  1012.4hPa Calm     35% 0.000in /  0mm 0.00 W/m2
02:44 72.0 °F /  22.2 °C 43.0 °F /  6.1 °C 29.9in /  1012.4hPa Calm     36% 0.000in /  0mm 0.00 W/m2
02:49 72.0 °F /  22.2 °C 43.0 °F /  6.1 °C 29.9in /  1012.4hPa Calm     36% 0.000in /  0mm 0.00 W/m2
02:54 72.0 °F /  22.2 °C 44.0 °F /  6.7 °C 29.9in /  1012.4hPa Calm     37% 0.000in /  0mm 0.00 W/m2
02:59 72.0 °F /  22.2 °C 43.0 °F /  6.1 °C 29.9in /  1012.4hPa ESE 2mph /  3.2km/h   36% 0.000in /  0mm 0.00 W/m2
03:04 72.0 °F /  22.2 °C 43.0 °F /  6.1 °C 29.9in /  1012.4hPa ESE 2mph /  3.2km/h 2mph /  3.2km/h 36% 0.000in /  0mm 0.00 W/m2
03:09 71.0 °F /  21.7 °C 45.0 °F /  7.2 °C 29.9in /  1012.4hPa Calm     38% 0.000in /  0mm 0.00 W/m2
03:14 71.0 °F /  21.7 °C 45.0 °F /  7.2 °C 29.9in /  1012.4hPa Calm     38% 0.000in /  0mm 0.00 W/m2
03:19 71.0 °F /  21.7 °C 44.0 °F /  6.7 °C 29.9in /  1012.4hPa Calm     37% 0.000in /  0mm 0.00 W/m2
03:24 71.0 °F /  21.7 °C 44.0 °F /  6.7 °C 29.9in /  1012.4hPa Calm     37% 0.000in /  0mm 0.00 W/m2
03:29 71.0 °F /  21.7 °C 44.0 °F /  6.7 °C 29.9in /  1012.4hPa Calm     38% 0.000in /  0mm 0.00 W/m2
03:34 71.0 °F /  21.7 °C 44.0 °F /  6.7 °C 29.9in /  1012.4hPa Calm     37% 0.000in /  0mm 0.00 W/m2
03:39 71.0 °F /  21.7 °C 44.0 °F /  6.7 °C 29.9in /  1012.4hPa Calm     37% 0.000in /  0mm 0.00 W/m2
03:44 71.0 °F /  21.7 °C 44.0 °F /  6.7 °C 29.9in /  1012.4hPa Calm     37% 0.000in /  0mm 0.00 W/m2
03:49 71.0 °F /  21.7 °C 44.0 °F /  6.7 °C 29.9in /  1012.4hPa ESE 2mph /  3.2km/h   38% 0.000in /  0mm 0.00 W/m2
03:54 71.0 °F /  21.7 °C 44.0 °F /  6.7 °C 29.9in /  1012.4hPa ESE 2mph /  3.2km/h 2mph /  3.2km/h 38% 0.000in /  0mm 0.00 W/m2
03:59 71.0 °F /  21.7 °C 44.0 °F /  6.7 °C 29.9in /  1012.4hPa Calm   2mph /  3.2km/h 38% 0.000in /  0mm 0.00 W/m2
04:04 71.0 °F /  21.7 °C 45.0 °F /  7.2 °C 29.9in /  1012.4hPa ESE 2mph /  3.2km/h   39% 0.000in /  0mm 0.00 W/m2
04:09 71.0 °F /  21.7 °C 44.0 °F /  6.7 °C 29.9in /  1012.4hPa Calm   2mph /  3.2km/h 38% 0.000in /  0mm 0.00 W/m2
04:14 71.0 °F /  21.7 °C 44.0 °F /  6.7 °C 29.9in /  1012.4hPa Calm     38% 0.000in /  0mm 0.00 W/m2
04:19 71.0 °F /  21.7 °C 44.0 °F /  6.7 °C 29.9in /  1012.4hPa Calm     37% 0.000in /  0mm 0.00 W/m2
04:24 71.0 °F /  21.7 °C 45.0 °F /  7.2 °C 29.9in /  1012.4hPa ESE 2mph /  3.2km/h   38% 0.000in /  0mm 0.00 W/m2
04:29 71.0 °F /  21.7 °C 45.0 °F /  7.2 °C 29.9in /  1012.4hPa Calm   2mph /  3.2km/h 38% 0.000in /  0mm 0.00 W/m2
04:34 72.0 °F /  22.2 °C 45.0 °F /  7.2 °C 29.9in /  1012.4hPa ESE 2mph /  3.2km/h   39% 0.000in /  0mm 0.00 W/m2
04:39 72.0 °F /  22.2 °C 45.0 °F /  7.2 °C 29.9in /  1012.4hPa ESE 2mph /  3.2km/h 2mph /  3.2km/h 38% 0.000in /  0mm 0.00 W/m2
04:44 72.0 °F /  22.2 °C 43.0 °F /  6.1 °C 29.9in /  1012.4hPa Calm   2mph /  3.2km/h 36% 0.000in /  0mm 0.00 W/m2
04:49 72.0 °F /  22.2 °C 43.0 °F /  6.1 °C 29.9in /  1012.4hPa Calm     36% 0.000in /  0mm 0.00 W/m2
04:54 72.0 °F /  22.2 °C 43.0 °F /  6.1 °C 29.9in /  1012.4hPa Calm     36% 0.000in /  0mm 0.00 W/m2
04:59 72.0 °F /  22.2 °C 43.0 °F /  6.1 °C 29.9in /  1012.4hPa Calm     36% 0.000in /  0mm 0.00 W/m2
05:04 72.0 °F /  22.2 °C 43.0 °F /  6.1 °C 29.9in /  1012.4hPa Calm     36% 0.000in /  0mm 0.00 W/m2
05:09 72.0 °F /  22.2 °C 43.0 °F /  6.1 °C 29.9in /  1012.4hPa Calm     36% 0.000in /  0mm 0.00 W/m2
05:14 72.0 °F /  22.2 °C 43.0 °F /  6.1 °C 29.9in /  1012.4hPa Calm     36% 0.000in /  0mm 0.00 W/m2
05:19 72.0 °F /  22.2 °C 44.0 °F /  6.7 °C 29.9in /  1012.4hPa Calm     37% 0.000in /  0mm 0.00 W/m2
05:24 72.0 °F /  22.2 °C 43.0 °F /  6.1 °C 29.9in /  1012.4hPa Calm     35% 0.000in /  0mm 0.00 W/m2
05:29 72.0 °F /  22.2 °C 43.0 °F /  6.1 °C 29.9in /  1012.4hPa ESE 2mph /  3.2km/h   36% 0.000in /  0mm 0.00 W/m2
05:34 72.0 °F /  22.2 °C 43.0 °F /  6.1 °C 29.9in /  1012.4hPa ESE 2mph /  3.2km/h 2mph /  3.2km/h 36% 0.000in /  0mm 0.00 W/m2
05:39 72.0 °F /  22.2 °C 43.0 °F /  6.1 °C 29.9in /  1012.4hPa ESE 2mph /  3.2km/h 2mph /  3.2km/h 36% 0.000in /  0mm 0.00 W/m2
05:44 72.0 °F /  22.2 °C 42.0 °F /  5.6 °C 29.9in /  1012.4hPa Calm   2mph /  3.2km/h 34% 0.000in /  0mm 0.00 W/m2
05:49 72.0 °F /  22.2 °C 43.0 °F /  6.1 °C 29.9in /  1012.4hPa Calm     36% 0.000in /  0mm 0.00 W/m2
05:54 72.0 °F /  22.2 °C 43.0 °F /  6.1 °C 29.9in /  1012.4hPa Calm     35% 0.000in /  0mm 0.00 W/m2
05:59 72.0 °F /  22.2 °C 43.0 °F /  6.1 °C 29.9in /  1012.4hPa Calm     35% 0.000in /  0mm 0.00 W/m2
06:04 72.0 °F /  22.2 °C 43.0 °F /  6.1 °C 29.9in /  1012.4hPa Calm     35% 0.000in /  0mm 0.00 W/m2
06:09 72.0 °F /  22.2 °C 42.0 °F /  5.6 °C 29.9in /  1012.4hPa Calm     34% 0.000in /  0mm 0.00 W/m2
06:14 72.0 °F /  22.2 °C 44.0 °F /  6.7 °C 29.9in /  1012.4hPa Calm     37% 0.000in /  0mm 0.00 W/m2
06:19 72.0 °F /  22.2 °C 43.0 °F /  6.1 °C 29.9in /  1012.4hPa ESE 2mph /  3.2km/h   35% 0.000in /  0mm 0.00 W/m2
06:24 72.0 °F /  22.2 °C 42.0 °F /  5.6 °C 29.9in /  1012.4hPa ESE 2mph /  3.2km/h 2mph /  3.2km/h 34% 0.000in /  0mm 0.00 W/m2
06:29 72.0 °F /  22.2 °C 42.0 °F /  5.6 °C 29.9in /  1012.4hPa Calm   2mph /  3.2km/h 34% 0.000in /  0mm 0.00 W/m2
06:34 72.0 °F /  22.2 °C 43.0 °F /  6.1 °C 29.9in /  1012.4hPa ESE 2mph /  3.2km/h   35% 0.000in /  0mm 0.00 W/m2
06:39 72.0 °F /  22.2 °C 43.0 °F /  6.1 °C 29.9in /  1012.4hPa SE 4mph /  6.4km/h 3mph /  4.8km/h 36% 0.000in /  0mm 0.00 W/m2
06:44 72.0 °F /  22.2 °C 43.0 °F /  6.1 °C 29.9in /  1012.4hPa Calm   3mph /  4.8km/h 36% 0.000in /  0mm 0.00 W/m2
06:49 72.0 °F /  22.2 °C 42.0 °F /  5.6 °C 29.9in /  1012.4hPa ESE 2mph /  3.2km/h   34% 0.000in /  0mm 5.00 W/m2
06:54 72.0 °F /  22.2 °C 42.0 °F /  5.6 °C 29.9in /  1012.4hPa ESE 2mph /  3.2km/h 2mph /  3.2km/h 34% 0.000in /  0mm 9.00 W/m2
06:59 72.0 °F /  22.2 °C 41.0 °F /  5 °C 29.9in /  1012.4hPa Calm   2mph /  3.2km/h 33% 0.000in /  0mm 11.00 W/m2
07:04 72.0 °F /  22.2 °C 41.0 °F /  5 °C 29.9in /  1012.4hPa ESE 2mph /  3.2km/h   33% 0.000in /  0mm 12.00 W/m2
07:09 72.0 °F /  22.2 °C 42.0 °F /  5.6 °C 29.9in /  1012.4hPa Calm   2mph /  3.2km/h 33% 0.000in /  0mm 14.00 W/m2
07:14 72.0 °F /  22.2 °C 41.0 °F /  5 °C 29.9in /  1012.4hPa Calm     32% 0.000in /  0mm 16.00 W/m2
07:19 72.0 °F /  22.2 °C 41.0 °F /  5 °C 29.9in /  1012.4hPa Calm     32% 0.000in /  0mm 18.00 W/m2
07:24 72.0 °F /  22.2 °C 42.0 °F /  5.6 °C 29.9in /  1012.4hPa Calm     33% 0.000in /  0mm 21.00 W/m2
07:29 73.0 °F /  22.8 °C 43.0 °F /  6.1 °C 29.9in /  1012.4hPa Calm     34% 0.000in /  0mm 23.00 W/m2
07:34 73.0 °F /  22.8 °C 43.0 °F /  6.1 °C 29.9in /  1012.4hPa Calm     35% 0.000in /  0mm 26.00 W/m2
07:39 73.0 °F /  22.8 °C 43.0 °F /  6.1 °C 29.9in /  1012.4hPa Calm     35% 0.000in /  0mm 28.00 W/m2
07:44 72.0 °F /  22.2 °C 42.0 °F /  5.6 °C 29.9in /  1012.4hPa Calm     34% 0.000in /  0mm 32.00 W/m2
07:49 72.0 °F /  22.2 °C 45.0 °F /  7.2 °C 29.9in /  1012.4hPa Calm     37% 0.000in /  0mm 35.00 W/m2
07:54 72.0 °F /  22.2 °C 44.0 °F /  6.7 °C 29.9in /  1012.4hPa Calm     36% 0.000in /  0mm 37.00 W/m2
07:59 72.0 °F /  22.2 °C 43.0 °F /  6.1 °C 29.9in /  1012.4hPa Calm     35% 0.000in /  0mm 39.00 W/m2
08:04 72.0 °F /  22.2 °C 44.0 °F /  6.7 °C 29.9in /  1012.4hPa Calm     36% 0.000in /  0mm 42.00 W/m2
08:09 72.0 °F /  22.2 °C 44.0 °F /  6.7 °C 29.9in /  1012.4hPa Calm     36% 0.000in /  0mm 46.00 W/m2
08:14 72.0 °F /  22.2 °C 44.0 °F /  6.7 °C 29.9in /  1012.4hPa Calm     36% 0.000in /  0mm 51.00 W/m2
08:19 72.0 °F /  22.2 °C 44.0 °F /  6.7 °C 30.0in /  1015.8hPa ESE 4mph /  6.4km/h 1mph /  1.6km/h 36% 0.000in /  0mm 53.00 W/m2
08:24 73.0 °F /  22.8 °C 44.0 °F /  6.7 °C 30.0in /  1015.8hPa Calm   3mph /  4.8km/h 36% 0.000in /  0mm 63.00 W/m2
08:29 73.0 °F /  22.8 °C 45.0 °F /  7.2 °C 30.0in /  1015.8hPa Calm     37% 0.000in /  0mm 156.00 W/m2
08:34 73.0 °F /  22.8 °C 45.0 °F /  7.2 °C 29.9in /  1012.4hPa ESE 2mph /  3.2km/h   37% 0.000in /  0mm 151.00 W/m2
08:39 74.0 °F /  23.3 °C 45.0 °F /  7.2 °C 29.9in /  1012.4hPa ESE 2mph /  3.2km/h 2mph /  3.2km/h 37% 0.000in /  0mm 283.00 W/m2
08:44 74.0 °F /  23.3 °C 46.0 °F /  7.8 °C 29.9in /  1012.4hPa ESE 2mph /  3.2km/h 2mph /  3.2km/h 37% 0.000in /  0mm 322.00 W/m2
08:49 75.0 °F /  23.9 °C 47.0 °F /  8.3 °C 29.9in /  1012.4hPa Calm   2mph /  3.2km/h 37% 0.000in /  0mm 322.00 W/m2
08:54 76.0 °F /  24.4 °C 47.0 °F /  8.3 °C 29.9in /  1012.4hPa Calm     37% 0.000in /  0mm 311.00 W/m2
08:59 76.0 °F /  24.4 °C 48.0 °F /  8.9 °C 29.9in /  1012.4hPa Calm     36% 0.000in /  0mm 353.00 W/m2
09:04 77.0 °F /  25 °C 48.0 °F /  8.9 °C 29.9in /  1012.4hPa Calm     36% 0.000in /  0mm 364.00 W/m2
09:09 78.0 °F /  25.6 °C 48.0 °F /  8.9 °C 30.0in /  1015.8hPa ESE 2mph /  3.2km/h   35% 0.000in /  0mm 383.00 W/m2
09:14 79.0 °F /  26.1 °C 47.0 °F /  8.3 °C 30.0in /  1015.8hPa ESE 2mph /  3.2km/h 2mph /  3.2km/h 32% 0.000in /  0mm 383.00 W/m2
09:19 80.0 °F /  26.7 °C 46.0 °F /  7.8 °C 30.0in /  1015.8hPa ESE 2mph /  3.2km/h 2mph /  3.2km/h 30% 0.000in /  0mm 403.00 W/m2
09:24 81.0 °F /  27.2 °C 48.0 °F /  8.9 °C 30.0in /  1015.8hPa ESE 6mph /  9.7km/h 6mph /  9.7km/h 32% 0.000in /  0mm 403.00 W/m2
09:29 82.0 °F /  27.8 °C 47.0 °F /  8.3 °C 29.9in /  1012.4hPa ESE 6mph /  9.7km/h 6mph /  9.7km/h 30% 0.000in /  0mm 439.00 W/m2
09:34 83.0 °F /  28.3 °C 47.0 °F /  8.3 °C 30.0in /  1015.8hPa SSE 6mph /  9.7km/h 6mph /  9.7km/h 29% 0.000in /  0mm 454.00 W/m2
09:39 84.0 °F /  28.9 °C 46.0 °F /  7.8 °C 29.9in /  1012.4hPa South 7mph /  11.3km/h 6mph /  9.7km/h 28% 0.000in /  0mm 490.00 W/m2
09:44 84.0 °F /  28.9 °C 45.0 °F /  7.2 °C 30.0in /  1015.8hPa SSE 7mph /  11.3km/h 7mph /  11.3km/h 26% 0.000in /  0mm 504.00 W/m2
09:49 85.0 °F /  29.4 °C 44.0 °F /  6.7 °C 30.0in /  1015.8hPa SSE 7mph /  11.3km/h 6mph /  9.7km/h 24% 0.000in /  0mm 522.00 W/m2
09:54 86.0 °F /  30 °C 46.0 °F /  7.8 °C 30.0in /  1015.8hPa SSE 6mph /  9.7km/h 7mph /  11.3km/h 25% 0.000in /  0mm 543.00 W/m2
09:59 86.0 °F /  30 °C 46.0 °F /  7.8 °C 30.0in /  1015.8hPa SSW 4mph /  6.4km/h 3mph /  4.8km/h 25% 0.000in /  0mm 559.00 W/m2
10:04 87.0 °F /  30.6 °C 43.0 °F /  6.1 °C 30.0in /  1015.8hPa NW 9mph /  14.5km/h 4mph /  6.4km/h 22% 0.000in /  0mm 573.00 W/m2
10:09 88.0 °F /  31.1 °C 43.0 °F /  6.1 °C 30.0in /  1015.8hPa WNW 9mph /  14.5km/h 9mph /  14.5km/h 21% 0.000in /  0mm 582.00 W/m2
10:14 88.0 °F /  31.1 °C 43.0 °F /  6.1 °C 30.0in /  1015.8hPa WSW 7mph /  11.3km/h 9mph /  14.5km/h 21% 0.000in /  0mm 594.00 W/m2
10:19 88.0 °F /  31.1 °C 43.0 °F /  6.1 °C 30.0in /  1015.8hPa West 9mph /  14.5km/h 7mph /  11.3km/h 21% 0.000in /  0mm 603.00 W/m2
10:24 89.0 °F /  31.7 °C 44.0 °F /  6.7 °C 30.0in /  1015.8hPa WNW 11mph /  17.7km/h 9mph /  14.5km/h 21% 0.000in /  0mm 619.00 W/m2
10:29 89.0 °F /  31.7 °C 43.0 °F /  6.1 °C 30.0in /  1015.8hPa NW 7mph /  11.3km/h 10mph /  16.1km/h 20% 0.000in /  0mm 640.00 W/m2
10:34 89.0 °F /  31.7 °C 43.0 °F /  6.1 °C 30.0in /  1015.8hPa NW 9mph /  14.5km/h 8mph /  12.9km/h 20% 0.000in /  0mm 657.00 W/m2
10:39 89.0 °F /  31.7 °C 43.0 °F /  6.1 °C 30.0in /  1015.8hPa SE 9mph /  14.5km/h 9mph /  14.5km/h 20% 0.000in /  0mm 666.00 W/m2
10:44 90.0 °F /  32.2 °C 43.0 °F /  6.1 °C 30.0in /  1015.8hPa NW 7mph /  11.3km/h 7mph /  11.3km/h 20% 0.000in /  0mm 673.00 W/m2
10:49 90.0 °F /  32.2 °C 44.0 °F /  6.7 °C 29.9in /  1012.4hPa WNW 9mph /  14.5km/h 7mph /  11.3km/h 20% 0.000in /  0mm 687.00 W/m2
10:54 90.0 °F /  32.2 °C 45.0 °F /  7.2 °C 29.9in /  1012.4hPa WNW 6mph /  9.7km/h 9mph /  14.5km/h 21% 0.000in /  0mm 701.00 W/m2
10:59 91.0 °F /  32.8 °C 43.0 °F /  6.1 °C 29.9in /  1012.4hPa NW 7mph /  11.3km/h 6mph /  9.7km/h 19% 0.000in /  0mm 712.00 W/m2
11:04 91.0 °F /  32.8 °C 43.0 °F /  6.1 °C 29.9in /  1012.4hPa WNW 7mph /  11.3km/h 7mph /  11.3km/h 19% 0.000in /  0mm 722.00 W/m2
11:09 91.0 °F /  32.8 °C 42.0 °F /  5.6 °C 29.9in /  1012.4hPa West 9mph /  14.5km/h 7mph /  11.3km/h 18% 0.000in /  0mm 731.00 W/m2
11:14 91.0 °F /  32.8 °C 43.0 °F /  6.1 °C 29.9in /  1012.4hPa WNW 9mph /  14.5km/h 9mph /  14.5km/h 19% 0.000in /  0mm 751.00 W/m2
11:19 92.0 °F /  33.3 °C 43.0 °F /  6.1 °C 29.9in /  1012.4hPa West 13mph /  20.9km/h 9mph /  14.5km/h 19% 0.000in /  0mm 756.00 W/m2
11:24 92.0 °F /  33.3 °C 44.0 °F /  6.7 °C 29.9in /  1012.4hPa West 11mph /  17.7km/h 13mph /  20.9km/h 19% 0.000in /  0mm 770.00 W/m2
11:29 92.0 °F /  33.3 °C 42.0 °F /  5.6 °C 29.9in /  1012.4hPa WNW 10mph /  16.1km/h 10mph /  16.1km/h 18% 0.000in /  0mm 772.00 W/m2
11:34 92.0 °F /  33.3 °C 43.0 °F /  6.1 °C 29.9in /  1012.4hPa NW 4mph /  6.4km/h 6mph /  9.7km/h 18% 0.000in /  0mm 779.00 W/m2
11:39 92.0 °F /  33.3 °C 43.0 °F /  6.1 °C 29.9in /  1012.4hPa NW 6mph /  9.7km/h 3mph /  4.8km/h 18% 0.000in /  0mm 782.00 W/m2
11:44 93.0 °F /  33.9 °C 44.0 °F /  6.7 °C 29.9in /  1012.4hPa West 11mph /  17.7km/h 7mph /  11.3km/h 19% 0.000in /  0mm 793.00 W/m2
11:49 93.0 °F /  33.9 °C 45.0 °F /  7.2 °C 29.9in /  1012.4hPa West 10mph /  16.1km/h 10mph /  16.1km/h 19% 0.000in /  0mm 802.00 W/m2
11:54 93.0 °F /  33.9 °C 44.0 °F /  6.7 °C 29.9in /  1012.4hPa West 7mph /  11.3km/h 9mph /  14.5km/h 18% 0.000in /  0mm 805.00 W/m2
11:59 94.0 °F /  34.4 °C 42.0 °F /  5.6 °C 29.9in /  1012.4hPa West 7mph /  11.3km/h 7mph /  11.3km/h 17% 0.000in /  0mm 810.00 W/m2
12:04 94.0 °F /  34.4 °C 43.0 °F /  6.1 °C 29.9in /  1012.4hPa WNW 16mph /  25.7km/h 16mph /  25.7km/h 17% 0.000in /  0mm 810.00 W/m2
12:09 94.0 °F /  34.4 °C 43.0 °F /  6.1 °C 29.9in /  1012.4hPa WSW 11mph /  17.7km/h 10mph /  16.1km/h 17% 0.000in /  0mm 817.00 W/m2
12:14 95.0 °F /  35 °C 43.0 °F /  6.1 °C 29.9in /  1012.4hPa WNW 9mph /  14.5km/h 10mph /  16.1km/h 17% 0.000in /  0mm 819.00 W/m2
12:18 95.0 °F /  35 °C 45.0 °F /  7.2 °C 29.9in /  1012.4hPa WSW 7mph /  11.3km/h 9mph /  14.5km/h 18% 0.000in /  0mm 826.00 W/m2
12:24 95.0 °F /  35 °C 44.0 °F /  6.7 °C 29.9in /  1012.4hPa South 2mph /  3.2km/h 7mph /  11.3km/h 17% 0.000in /  0mm 828.00 W/m2
12:29 96.0 °F /  35.6 °C 45.0 °F /  7.2 °C 29.9in /  1012.4hPa NW 9mph /  14.5km/h 6mph /  9.7km/h 18% 0.000in /  0mm 830.00 W/m2
12:34 96.0 °F /  35.6 °C 44.0 °F /  6.7 °C 29.9in /  1012.4hPa West 9mph /  14.5km/h 9mph /  14.5km/h 17% 0.000in /  0mm 831.00 W/m2
12:39 97.0 °F /  36.1 °C 44.0 °F /  6.7 °C 29.9in /  1012.4hPa SW 6mph /  9.7km/h 9mph /  14.5km/h 17% 0.000in /  0mm 830.00 W/m2
12:44 97.0 °F /  36.1 °C 43.0 °F /  6.1 °C 29.9in /  1012.4hPa WNW 7mph /  11.3km/h 6mph /  9.7km/h 16% 0.000in /  0mm 826.00 W/m2
12:49 97.0 °F /  36.1 °C 42.0 °F /  5.6 °C 29.9in /  1012.4hPa WSW 11mph /  17.7km/h 7mph /  11.3km/h 15% 0.000in /  0mm 828.00 W/m2
12:54 97.0 °F /  36.1 °C 44.0 °F /  6.7 °C 29.9in /  1012.4hPa West 6mph /  9.7km/h 10mph /  16.1km/h 16% 0.000in /  0mm 826.00 W/m2
12:59 98.0 °F /  36.7 °C 46.0 °F /  7.8 °C 29.9in /  1012.4hPa West 11mph /  17.7km/h 11mph /  17.7km/h 17% 0.000in /  0mm 824.00 W/m2
13:04 98.0 °F /  36.7 °C 43.0 °F /  6.1 °C 29.9in /  1012.4hPa West 8mph /  12.9km/h 10mph /  16.1km/h 15% 0.000in /  0mm 830.00 W/m2
13:09 99.0 °F /  37.2 °C 45.0 °F /  7.2 °C 29.9in /  1012.4hPa WNW 4mph /  6.4km/h 7mph /  11.3km/h 16% 0.000in /  0mm 830.00 W/m2
13:14 99.0 °F /  37.2 °C 45.0 °F /  7.2 °C 29.9in /  1012.4hPa WNW 9mph /  14.5km/h 5mph /  8km/h 16% 0.000in /  0mm 826.00 W/m2
13:19 99.0 °F /  37.2 °C 43.0 °F /  6.1 °C 29.9in /  1012.4hPa West 9mph /  14.5km/h 9mph /  14.5km/h 15% 0.000in /  0mm 828.00 W/m2
13:24 100.0 °F /  37.8 °C 44.0 °F /  6.7 °C 29.9in /  1012.4hPa WSW 4mph /  6.4km/h 6mph /  9.7km/h 15% 0.000in /  0mm 823.00 W/m2
13:29 100.0 °F /  37.8 °C 44.0 °F /  6.7 °C 29.9in /  1012.4hPa WNW 11mph /  17.7km/h 4mph /  6.4km/h 15% 0.000in /  0mm 816.00 W/m2
13:34 100.0 °F /  37.8 °C 44.0 °F /  6.7 °C 29.9in /  1012.4hPa West 4mph /  6.4km/h 10mph /  16.1km/h 15% 0.000in /  0mm 807.00 W/m2
13:39 101.0 °F /  38.3 °C 45.0 °F /  7.2 °C 29.9in /  1012.4hPa WSW 4mph /  6.4km/h 3mph /  4.8km/h 15% 0.000in /  0mm 803.00 W/m2
13:44 102.0 °F /  38.9 °C 45.0 °F /  7.2 °C 29.9in /  1012.4hPa West 9mph /  14.5km/h 5mph /  8km/h 15% 0.000in /  0mm 796.00 W/m2
13:49 102.0 °F /  38.9 °C 44.0 °F /  6.7 °C 29.9in /  1012.4hPa NNW 9mph /  14.5km/h 9mph /  14.5km/h 14% 0.000in /  0mm 795.00 W/m2
13:54 102.0 °F /  38.9 °C 44.0 °F /  6.7 °C 29.9in /  1012.4hPa NW 12mph /  19.3km/h 10mph /  16.1km/h 14% 0.000in /  0mm 793.00 W/m2
13:59 103.0 °F /  39.4 °C 44.0 °F /  6.7 °C 29.9in /  1012.4hPa NNE 13mph /  20.9km/h 13mph /  20.9km/h 14% 0.000in /  0mm 788.00 W/m2
14:04 103.0 °F /  39.4 °C 44.0 °F /  6.7 °C 29.9in /  1012.4hPa WSW 6mph /  9.7km/h 7mph /  11.3km/h 14% 0.000in /  0mm 782.00 W/m2
14:09 103.0 °F /  39.4 °C 43.0 °F /  6.1 °C 29.9in /  1012.4hPa WNW 13mph /  20.9km/h 10mph /  16.1km/h 13% 0.000in /  0mm 775.00 W/m2
14:14 103.0 °F /  39.4 °C 45.0 °F /  7.2 °C 29.9in /  1012.4hPa WSW 13mph /  20.9km/h 13mph /  20.9km/h 14% 0.000in /  0mm 761.00 W/m2
14:19 104.0 °F /  40 °C 45.0 °F /  7.2 °C 29.9in /  1012.4hPa WNW 6mph /  9.7km/h 6mph /  9.7km/h 14% 0.000in /  0mm 751.00 W/m2
14:24 104.0 °F /  40 °C 45.0 °F /  7.2 °C 29.9in /  1012.4hPa NNW 9mph /  14.5km/h 6mph /  9.7km/h 14% 0.000in /  0mm 752.00 W/m2
14:29 104.0 °F /  40 °C 43.0 °F /  6.1 °C 29.9in /  1012.4hPa WNW 9mph /  14.5km/h 9mph /  14.5km/h 13% 0.000in /  0mm 740.00 W/m2
14:34 104.0 °F /  40 °C 44.0 °F /  6.7 °C 29.9in /  1012.4hPa WNW 7mph /  11.3km/h 9mph /  14.5km/h 13% 0.000in /  0mm 733.00 W/m2
14:39 104.0 °F /  40 °C 44.0 °F /  6.7 °C 29.9in /  1012.4hPa NW 9mph /  14.5km/h 7mph /  11.3km/h 13% 0.000in /  0mm 722.00 W/m2
14:44 104.0 °F /  40 °C 44.0 °F /  6.7 °C 29.9in /  1012.4hPa WNW 9mph /  14.5km/h 9mph /  14.5km/h 13% 0.000in /  0mm 719.00 W/m2
14:49 104.0 °F /  40 °C 44.0 °F /  6.7 °C 29.9in /  1012.4hPa WNW 7mph /  11.3km/h 9mph /  14.5km/h 13% 0.000in /  0mm 712.00 W/m2
14:54 105.0 °F /  40.6 °C 44.0 °F /  6.7 °C 29.9in /  1012.4hPa WNW 11mph /  17.7km/h 7mph /  11.3km/h 13% 0.000in /  0mm 701.00 W/m2
14:59 105.0 °F /  40.6 °C 42.0 °F /  5.6 °C 29.9in /  1012.4hPa NW 6mph /  9.7km/h 10mph /  16.1km/h 12% 0.000in /  0mm 687.00 W/m2
15:04 105.0 °F /  40.6 °C 44.0 °F /  6.7 °C 29.9in /  1012.4hPa West 13mph /  20.9km/h 7mph /  11.3km/h 13% 0.000in /  0mm 679.00 W/m2
15:09 105.0 °F /  40.6 °C 42.0 °F /  5.6 °C 29.9in /  1012.4hPa WNW 7mph /  11.3km/h 13mph /  20.9km/h 12% 0.000in /  0mm 666.00 W/m2
15:14 105.0 °F /  40.6 °C 47.0 °F /  8.3 °C 29.9in /  1012.4hPa NNW 6mph /  9.7km/h 7mph /  11.3km/h 14% 0.000in /  0mm 654.00 W/m2
15:19 105.0 °F /  40.6 °C 45.0 °F /  7.2 °C 29.9in /  1012.4hPa West 11mph /  17.7km/h 8mph /  12.9km/h 13% 0.000in /  0mm 645.00 W/m2
15:24 105.0 °F /  40.6 °C 45.0 °F /  7.2 °C 29.9in /  1012.4hPa West 9mph /  14.5km/h 10mph /  16.1km/h 13% 0.000in /  0mm 631.00 W/m2
15:29 106.0 °F /  41.1 °C 45.0 °F /  7.2 °C 29.9in /  1012.4hPa WSW 9mph /  14.5km/h 9mph /  14.5km/h 13% 0.000in /  0mm 615.00 W/m2
15:34 106.0 °F /  41.1 °C 45.0 °F /  7.2 °C 29.9in /  1012.4hPa WSW 4mph /  6.4km/h 2mph /  3.2km/h 13% 0.000in /  0mm 606.00 W/m2
15:39 106.0 °F /  41.1 °C 47.0 °F /  8.3 °C 29.8in /  1009hPa South 2mph /  3.2km/h 3mph /  4.8km/h 14% 0.000in /  0mm 592.00 W/m2
15:44 106.0 °F /  41.1 °C 45.0 °F /  7.2 °C 29.8in /  1009hPa SSE 5mph /  8km/h 2mph /  3.2km/h 13% 0.000in /  0mm 577.00 W/m2
15:49 106.0 °F /  41.1 °C 43.0 °F /  6.1 °C 29.8in /  1009hPa NNW 9mph /  14.5km/h 9mph /  14.5km/h 12% 0.000in /  0mm 563.00 W/m2
15:54 106.0 °F /  41.1 °C 45.0 °F /  7.2 °C 29.8in /  1009hPa WNW 7mph /  11.3km/h 7mph /  11.3km/h 13% 0.000in /  0mm 552.00 W/m2
15:59 106.0 °F /  41.1 °C 43.0 °F /  6.1 °C 29.8in /  1009hPa West 13mph /  20.9km/h 9mph /  14.5km/h 12% 0.000in /  0mm 543.00 W/m2
16:04 106.0 °F /  41.1 °C 46.0 °F /  7.8 °C 29.8in /  1009hPa WSW 10mph /  16.1km/h 13mph /  20.9km/h 14% 0.000in /  0mm 526.00 W/m2
16:09 105.0 °F /  40.6 °C 46.0 °F /  7.8 °C 29.8in /  1009hPa West 4mph /  6.4km/h 6mph /  9.7km/h 14% 0.000in /  0mm 510.00 W/m2
16:14 105.0 °F /  40.6 °C 48.0 °F /  8.9 °C 29.8in /  1009hPa West 7mph /  11.3km/h 3mph /  4.8km/h 15% 0.000in /  0mm 492.00 W/m2
16:19 105.0 °F /  40.6 °C 45.0 °F /  7.2 °C 29.8in /  1009hPa WNW 7mph /  11.3km/h 7mph /  11.3km/h 13% 0.000in /  0mm 480.00 W/m2
16:24 105.0 °F /  40.6 °C 45.0 °F /  7.2 °C 29.8in /  1009hPa NW 7mph /  11.3km/h 7mph /  11.3km/h 13% 0.000in /  0mm 462.00 W/m2
16:29 105.0 °F /  40.6 °C 44.0 °F /  6.7 °C 29.8in /  1009hPa WNW 16mph /  25.7km/h 7mph /  11.3km/h 13% 0.000in /  0mm 452.00 W/m2
16:34 105.0 °F /  40.6 °C 44.0 °F /  6.7 °C 29.8in /  1009hPa West 16mph /  25.7km/h 16mph /  25.7km/h 13% 0.000in /  0mm 436.00 W/m2
16:39 105.0 °F /  40.6 °C 44.0 °F /  6.7 °C 29.8in /  1009hPa West 11mph /  17.7km/h 10mph /  16.1km/h 13% 0.000in /  0mm 424.00 W/m2
16:44 105.0 °F /  40.6 °C 46.0 °F /  7.8 °C 29.8in /  1009hPa NW 6mph /  9.7km/h 10mph /  16.1km/h 14% 0.000in /  0mm 410.00 W/m2
16:49 104.0 °F /  40 °C 44.0 °F /  6.7 °C 29.8in /  1009hPa ESE 7mph /  11.3km/h 6mph /  9.7km/h 13% 0.000in /  0mm 396.00 W/m2
16:54 104.0 °F /  40 °C 46.0 °F /  7.8 °C 29.8in /  1009hPa NW 11mph /  17.7km/h 7mph /  11.3km/h 14% 0.000in /  0mm 380.00 W/m2
16:59 104.0 °F /  40 °C 46.0 °F /  7.8 °C 29.8in /  1009hPa WNW 9mph /  14.5km/h 10mph /  16.1km/h 14% 0.000in /  0mm 367.00 W/m2
17:04 104.0 °F /  40 °C 45.0 °F /  7.2 °C 29.8in /  1009hPa WSW 6mph /  9.7km/h 9mph /  14.5km/h 14% 0.000in /  0mm 352.00 W/m2
17:14 103.0 °F /  39.4 °C 43.0 °F /  6.1 °C 29.8in /  1009hPa NW 6mph /  9.7km/h 7mph /  11.3km/h 13% 0.000in /  0mm 139.00 W/m2
17:19 103.0 °F /  39.4 °C 46.0 °F /  7.8 °C 29.8in /  1009hPa North 4mph /  6.4km/h 6mph /  9.7km/h 15% 0.000in /  0mm 102.00 W/m2
17:24 102.0 °F /  38.9 °C 44.0 °F /  6.7 °C 29.8in /  1009hPa WNW 6mph /  9.7km/h 3mph /  4.8km/h 14% 0.000in /  0mm 128.00 W/m2
17:29 102.0 °F /  38.9 °C 44.0 °F /  6.7 °C 29.8in /  1009hPa West 7mph /  11.3km/h 6mph /  9.7km/h 14% 0.000in /  0mm 118.00 W/m2
17:34 101.0 °F /  38.3 °C 45.0 °F /  7.2 °C 29.8in /  1009hPa WNW 6mph /  9.7km/h 7mph /  11.3km/h 15% 0.000in /  0mm 95.00 W/m2
17:39 101.0 °F /  38.3 °C 44.0 °F /  6.7 °C 29.8in /  1009hPa WSW 6mph /  9.7km/h 6mph /  9.7km/h 15% 0.000in /  0mm 54.00 W/m2
17:44 100.0 °F /  37.8 °C 46.0 °F /  7.8 °C 29.8in /  1009hPa NW 6mph /  9.7km/h 6mph /  9.7km/h 16% 0.000in /  0mm 49.00 W/m2
17:49 100.0 °F /  37.8 °C 46.0 °F /  7.8 °C 29.8in /  1009hPa NW 6mph /  9.7km/h 2mph /  3.2km/h 16% 0.000in /  0mm 53.00 W/m2
17:54 99.0 °F /  37.2 °C 45.0 °F /  7.2 °C 29.8in /  1009hPa NW 2mph /  3.2km/h 6mph /  9.7km/h 16% 0.000in /  0mm 62.00 W/m2
17:59 99.0 °F /  37.2 °C 45.0 °F /  7.2 °C 29.8in /  1009hPa NNW 2mph /  3.2km/h 2mph /  3.2km/h 16% 0.000in /  0mm 67.00 W/m2
18:04 98.0 °F /  36.7 °C 47.0 °F /  8.3 °C 29.8in /  1009hPa NW 2mph /  3.2km/h 2mph /  3.2km/h 18% 0.000in /  0mm 81.00 W/m2
18:09 98.0 °F /  36.7 °C 47.0 °F /  8.3 °C 29.8in /  1009hPa West 2mph /  3.2km/h 2mph /  3.2km/h 18% 0.000in /  0mm 81.00 W/m2
18:14 98.0 °F /  36.7 °C 50.0 °F /  10 °C 29.9in /  1012.4hPa West 2mph /  3.2km/h 2mph /  3.2km/h 20% 0.000in /  0mm 63.00 W/m2
18:19 97.0 °F /  36.1 °C 49.0 °F /  9.4 °C 29.9in /  1012.4hPa Calm   2mph /  3.2km/h 20% 0.000in /  0mm 30.00 W/m2
18:24 97.0 °F /  36.1 °C 49.0 °F /  9.4 °C 29.8in /  1009hPa West 2mph /  3.2km/h 2mph /  3.2km/h 20% 0.000in /  0mm 26.00 W/m2
18:29 96.0 °F /  35.6 °C 51.0 °F /  10.6 °C 29.8in /  1009hPa West 2mph /  3.2km/h 2mph /  3.2km/h 22% 0.000in /  0mm 25.00 W/m2
18:34 96.0 °F /  35.6 °C 51.0 °F /  10.6 °C 29.9in /  1012.4hPa West 2mph /  3.2km/h 2mph /  3.2km/h 22% 0.000in /  0mm 23.00 W/m2
18:39 95.0 °F /  35 °C 53.0 °F /  11.7 °C 29.9in /  1012.4hPa West 2mph /  3.2km/h 2mph /  3.2km/h 24% 0.000in /  0mm 19.00 W/m2
18:44 95.0 °F /  35 °C 52.0 °F /  11.1 °C 29.9in /  1012.4hPa WSW 2mph /  3.2km/h 2mph /  3.2km/h 24% 0.000in /  0mm 18.00 W/m2
18:49 94.0 °F /  34.4 °C 54.0 °F /  12.2 °C 29.9in /  1012.4hPa Calm     26% 0.000in /  0mm 16.00 W/m2
18:54 94.0 °F /  34.4 °C 54.0 °F /  12.2 °C 29.9in /  1012.4hPa Calm     26% 0.000in /  0mm 14.00 W/m2
18:59 93.0 °F /  33.9 °C 52.0 °F /  11.1 °C 29.9in /  1012.4hPa Calm     25% 0.000in /  0mm 12.00 W/m2
19:04 93.0 °F /  33.9 °C 53.0 °F /  11.7 °C 29.9in /  1012.4hPa Calm     26% 0.000in /  0mm 11.00 W/m2
19:09 92.0 °F /  33.3 °C 51.0 °F /  10.6 °C 29.9in /  1012.4hPa Calm     25% 0.000in /  0mm 7.00 W/m2
19:14 92.0 °F /  33.3 °C 54.0 °F /  12.2 °C 29.9in /  1012.4hPa Calm     28% 0.000in /  0mm 5.00 W/m2
19:19 91.0 °F /  32.8 °C 53.0 °F /  11.7 °C 29.9in /  1012.4hPa Calm     28% 0.000in /  0mm 0.00 W/m2
19:24 91.0 °F /  32.8 °C 53.0 °F /  11.7 °C 29.9in /  1012.4hPa Calm     28% 0.000in /  0mm 0.00 W/m2
19:29 90.0 °F /  32.2 °C 56.0 °F /  13.3 °C 29.9in /  1012.4hPa Calm     32% 0.000in /  0mm 0.00 W/m2
19:34 89.0 °F /  31.7 °C 54.0 °F /  12.2 °C 29.9in /  1012.4hPa Calm     30% 0.000in /  0mm 0.00 W/m2
19:39 89.0 °F /  31.7 °C 55.0 °F /  12.8 °C 29.9in /  1012.4hPa Calm     32% 0.000in /  0mm 0.00 W/m2
19:44 88.0 °F /  31.1 °C 55.0 °F /  12.8 °C 29.9in /  1012.4hPa Calm     33% 0.000in /  0mm 0.00 W/m2
19:49 87.0 °F /  30.6 °C 53.0 °F /  11.7 °C 29.9in /  1012.4hPa Calm     32% 0.000in /  0mm 0.00 W/m2
19:54 87.0 °F /  30.6 °C 53.0 °F /  11.7 °C 29.9in /  1012.4hPa Calm     32% 0.000in /  0mm 0.00 W/m2
19:59 86.0 °F /  30 °C 52.0 °F /  11.1 °C 29.9in /  1012.4hPa Calm     32% 0.000in /  0mm 0.00 W/m2
20:04 85.0 °F /  29.4 °C 52.0 °F /  11.1 °C 29.9in /  1012.4hPa Calm     32% 0.000in /  0mm 0.00 W/m2
20:09 85.0 °F /  29.4 °C 50.0 °F /  10 °C 29.9in /  1012.4hPa Calm     30% 0.000in /  0mm 0.00 W/m2
20:14 84.0 °F /  28.9 °C 49.0 °F /  9.4 °C 29.9in /  1012.4hPa Calm     29% 0.000in /  0mm 0.00 W/m2
20:19 84.0 °F /  28.9 °C 49.0 °F /  9.4 °C 29.9in /  1012.4hPa Calm     30% 0.000in /  0mm 0.00 W/m2
20:24 84.0 °F /  28.9 °C 48.0 °F /  8.9 °C 29.9in /  1012.4hPa Calm     29% 0.000in /  0mm 0.00 W/m2
20:29 83.0 °F /  28.3 °C 49.0 °F /  9.4 °C 29.9in /  1012.4hPa Calm     30% 0.000in /  0mm 0.00 W/m2
20:34 83.0 °F /  28.3 °C 47.0 °F /  8.3 °C 29.9in /  1012.4hPa Calm     28% 0.000in /  0mm 0.00 W/m2
20:39 83.0 °F /  28.3 °C 46.0 °F /  7.8 °C 29.9in /  1012.4hPa Calm     28% 0.000in /  0mm 0.00 W/m2
20:44 83.0 °F /  28.3 °C 46.0 °F /  7.8 °C 29.9in /  1012.4hPa Calm     28% 0.000in /  0mm 0.00 W/m2
20:49 82.0 °F /  27.8 °C 46.0 °F /  7.8 °C 29.9in /  1012.4hPa Calm     28% 0.000in /  0mm 0.00 W/m2
20:54 82.0 °F /  27.8 °C 45.0 °F /  7.2 °C 29.9in /  1012.4hPa Calm     27% 0.000in /  0mm 0.00 W/m2
20:59 82.0 °F /  27.8 °C 45.0 °F /  7.2 °C 29.9in /  1012.4hPa Calm     27% 0.000in /  0mm 0.00 W/m2
21:04 82.0 °F /  27.8 °C 45.0 °F /  7.2 °C 29.9in /  1012.4hPa Calm     28% 0.000in /  0mm 0.00 W/m2
21:09 82.0 °F /  27.8 °C 46.0 °F /  7.8 °C 29.9in /  1012.4hPa Calm     29% 0.000in /  0mm 0.00 W/m2
21:14 81.0 °F /  27.2 °C 46.0 °F /  7.8 °C 29.9in /  1012.4hPa Calm     29% 0.000in /  0mm 0.00 W/m2
21:19 81.0 °F /  27.2 °C 46.0 °F /  7.8 °C 29.9in /  1012.4hPa Calm     29% 0.000in /  0mm 0.00 W/m2
21:24 81.0 °F /  27.2 °C 46.0 °F /  7.8 °C 29.9in /  1012.4hPa Calm     29% 0.000in /  0mm 0.00 W/m2
21:29 81.0 °F /  27.2 °C 45.0 °F /  7.2 °C 29.9in /  1012.4hPa Calm     29% 0.000in /  0mm 0.00 W/m2
21:34 81.0 °F /  27.2 °C 45.0 °F /  7.2 °C 29.9in /  1012.4hPa Calm     29% 0.000in /  0mm 0.00 W/m2
21:39 80.0 °F /  26.7 °C 45.0 °F /  7.2 °C 29.9in /  1012.4hPa Calm     29% 0.000in /  0mm 0.00 W/m2
21:44 80.0 °F /  26.7 °C 45.0 °F /  7.2 °C 29.9in /  1012.4hPa Calm     29% 0.000in /  0mm 0.00 W/m2
21:49 80.0 °F /  26.7 °C 46.0 °F /  7.8 °C 29.9in /  1012.4hPa Calm     30% 0.000in /  0mm 0.00 W/m2
21:54 80.0 °F /  26.7 °C 47.0 °F /  8.3 °C 29.9in /  1012.4hPa Calm     32% 0.000in /  0mm 0.00 W/m2
21:59 80.0 °F /  26.7 °C 45.0 °F /  7.2 °C 29.9in /  1012.4hPa Calm     30% 0.000in /  0mm 0.00 W/m2
22:04 80.0 °F /  26.7 °C 45.0 °F /  7.2 °C 29.9in /  1012.4hPa Calm     30% 0.000in /  0mm 0.00 W/m2
22:09 79.0 °F /  26.1 °C 47.0 °F /  8.3 °C 29.9in /  1012.4hPa Calm     32% 0.000in /  0mm 0.00 W/m2
22:14 79.0 °F /  26.1 °C 47.0 °F /  8.3 °C 29.9in /  1012.4hPa Calm     32% 0.000in /  0mm 0.00 W/m2
22:19 79.0 °F /  26.1 °C 47.0 °F /  8.3 °C 29.9in /  1012.4hPa Calm     32% 0.000in /  0mm 0.00 W/m2
22:24 79.0 °F /  26.1 °C 46.0 °F /  7.8 °C 29.9in /  1012.4hPa Calm     31% 0.000in /  0mm 0.00 W/m2
22:29 79.0 °F /  26.1 °C 46.0 °F /  7.8 °C 29.9in /  1012.4hPa Calm     31% 0.000in /  0mm 0.00 W/m2
22:34 79.0 °F /  26.1 °C 45.0 °F /  7.2 °C 29.9in /  1012.4hPa Calm     30% 0.000in /  0mm 0.00 W/m2
22:39 79.0 °F /  26.1 °C 46.0 °F /  7.8 °C 29.9in /  1012.4hPa Calm     32% 0.000in /  0mm 0.00 W/m2
22:44 79.0 °F /  26.1 °C 46.0 °F /  7.8 °C 29.9in /  1012.4hPa Calm     32% 0.000in /  0mm 0.00 W/m2
22:49 79.0 °F /  26.1 °C 46.0 °F /  7.8 °C 29.9in /  1012.4hPa Calm     32% 0.000in /  0mm 0.00 W/m2
22:54 78.0 °F /  25.6 °C 45.0 °F /  7.2 °C 29.9in /  1012.4hPa Calm     31% 0.000in /  0mm 0.00 W/m2
22:59 78.0 °F /  25.6 °C 45.0 °F /  7.2 °C 29.9in /  1012.4hPa Calm     31% 0.000in /  0mm 0.00 W/m2
El Dorado Weather
Compliments of Weather Underground - 2 mb